Phoenix, AZ

3:25 PM MST on September 01, 2015 (GMT -0700)
Phoenix Sky Harbor International | | Change Station
CLOSE
Current Station
Airport
Location: Phoenix,
Elevation: 1106 ft
Nearby Weather Stations

Elev 1106 ft 33.43 °N, 112.00 °W | Updated 34 minutes ago

Mostly Cloudy
Mostly Cloudy
97 °F
Feels Like 98 °F
N
7
Wind Variable Wind from East

Today
High -- | Low -- °F
--% Chance of Precip.
Yesterday
High -- | Low -- °F
Precip. -- in
6:02 AM 6:53 PM
Waning Gibbous, 86% visible
Pressure 29.83 in
Visibility 10.0 miles
Clouds Few 7000 ft
Mostly Cloudy 25000 ft
Mostly Cloudy 29000 ft
Heat Index 98 °F
Dew Point 62 °F
Humidity 31%
Rainfall 0.00 in
Snow Depth Not available.
UV 4 out of 12
Pollen 5.20 out of 12
Air Quality Not available.
Flu Activity Not available.
METAR KPHX 012151Z 10006KT 10SM FEW070 BKN250 BKN290 36/17 A2983 RMK AO2 SLPNO CB DSNT N T03610167
Pressure 29.83 in
Visibility 10.0 miles
Clouds Few 7000 ft
Mostly Cloudy 25000 ft
Mostly Cloudy 29000 ft
Heat Index 98 °F
Dew Point 62 °F
Humidity 31%
Rainfall 0.00 in
Snow Depth Not available.
UV 4 out of 12
Pollen 5.20 out of 12
Air Quality Not available.
Flu Activity Not available.
METAR KPHX 012151Z 10006KT 10SM FEW070 BKN250 BKN290 36/17 A2983 RMK AO2 SLPNO CB DSNT N T03610167

10-Day Weather Forecast

×

Almanac

Astronomy

Sep. 01, 2015 Rise Set
Actual Time
Civil Twilight
Nautical Twilight
Astronomical Twilight
Moon
Length of Visible Light
Length of Day
Tomorrow will be .
, % of the Moon is Illuminated

Today's Extremes

State Highs State Lows

Community

WunderPhotos

Upload Photos

1,851,632 photos uploaded!

WunderBlogs® & News

Nearby

Air Quality

  Air Quality AQ Index Pollutant
Not available.

Snow Depth

Station Depth Elevation

Earthquake Activity

City Distance Mag. Time & Date
Minimum magnitude displayed is 2.5.

Coastal Water Temperatures

Place Temperature

Stations

Nearby Weather Stations

Station Location Temp. Windchill Dew Point Humidity Wind Precip. Elev Updated Type